Time;durP1;ratioP1;P1;durP2;ratioP2;P2;SDS_P1;SDS_P2;PMS_P1;PMS_P2;Temp;Humidity;BMP_temperature;BMP_pressure;BME280_temperature;BME280_humidity;BME280_pressure;Samples;Min_cycle;Max_cycle;Signal;HPM_P1;HPM_P2
2023/05/19 00:00:09;;;;;;;1.57;1.20;;;14.70;78.40;;;;;;5095284;28;20750;-66
2023/05/19 00:02:42;;;;;;;1.30;1.20;;;14.70;78.30;;;;;;5104226;28;20202;-66
2023/05/19 00:05:11;;;;;;;1.27;1.10;;;14.70;78.30;;;;;;5109673;28;20557;-66
2023/05/19 00:07:39;;;;;;;1.10;1.00;;;14.70;78.50;;;;;;5106123;28;20203;-66
2023/05/19 00:10:08;;;;;;;1.73;1.20;;;14.60;78.40;;;;;;5109264;28;20224;-66
2023/05/19 00:12:36;;;;;;;1.80;1.07;;;14.60;78.60;;;;;;5105698;28;20208;-66
2023/05/19 00:15:04;;;;;;;1.27;1.17;;;14.50;79.00;;;;;;5111086;28;20567;-66
2023/05/19 00:17:33;;;;;;;1.07;0.97;;;14.50;78.70;;;;;;5111851;28;20286;-66
2023/05/19 00:20:06;;;;;;;1.10;1.10;;;14.50;78.80;;;;;;5111200;28;20291;-67
2023/05/19 00:22:33;;;;;;;1.80;1.20;;;14.40;79.40;;;;;;5110711;28;20203;-66
2023/05/19 00:25:00;;;;;;;1.97;1.20;;;;;;;;;;5111848;28;20197;-67
2023/05/19 00:27:27;;;;;;;1.47;1.37;;;14.40;78.40;;;;;;5092527;28;20746;-66
2023/05/19 00:29:54;;;;;;;1.63;1.10;;;13.90;78.60;;;;;;5110974;27;20210;-66
2023/05/19 00:32:22;;;;;;;1.63;1.20;;;14.40;79.20;;;;;;5115847;27;20206;-66
2023/05/19 00:34:49;;;;;;;1.73;1.00;;;14.30;79.30;;;;;;5110604;28;20289;-66
2023/05/19 00:37:19;;;;;;;1.30;1.10;;;14.30;79.60;;;;;;5110931;28;20198;-66
2023/05/19 00:39:46;;;;;;;1.20;1.10;;;14.20;79.80;;;;;;5110145;28;20213;-66
2023/05/19 00:42:14;;;;;;;2.90;1.00;;;14.20;79.50;;;;;;5110727;28;20210;-66
2023/05/19 00:44:41;;;;;;;1.17;1.00;;;14.30;79.00;;;;;;5112118;28;20199;-66
2023/05/19 00:47:09;;;;;;;1.20;1.10;;;14.20;79.80;;;;;;5111417;28;20624;-66
2023/05/19 00:49:36;;;;;;;1.20;0.90;;;14.30;80.20;;;;;;5111626;28;20218;-66
2023/05/19 00:52:06;;;;;;;0.93;0.90;;;14.20;79.80;;;;;;5110348;28;20323;-66
2023/05/19 00:54:34;;;;;;;1.80;1.10;;;14.20;79.60;;;;;;5116697;27;20207;-66
2023/05/19 00:57:03;;;;;;;0.97;0.80;;;14.10;79.70;;;;;;5108371;28;20627;-67
2023/05/19 00:59:30;;;;;;;1.00;0.80;;;14.10;79.90;;;;;;5104783;28;20223;-66
2023/05/19 01:01:58;;;;;;;1.03;0.83;;;14.00;79.80;;;;;;5106864;28;20717;-66
2023/05/19 01:04:25;;;;;;;1.37;0.80;;;14.00;79.90;;;;;;5107910;28;20299;-65
2023/05/19 01:06:53;;;;;;;0.70;0.70;;;14.00;80.10;;;;;;5105338;28;20241;-65
2023/05/19 01:09:21;;;;;;;0.67;0.63;;;14.00;80.20;;;;;;5106901;28;20218;-66
2023/05/19 01:11:50;;;;;;;1.40;0.80;;;15.70;82.20;;;;;;5102404;28;20638;-66
2023/05/19 01:14:17;;;;;;;1.00;0.80;;;13.90;80.50;;;;;;5099697;28;20209;-66
2023/05/19 01:16:51;;;;;;;0.87;0.73;;;13.90;80.40;;;;;;5100852;28;20214;-66
2023/05/19 01:19:39;;;;;;;0.80;0.80;;;13.90;80.40;;;;;;5103557;28;20562;-66
2023/05/19 01:22:32;;;;;;;0.70;0.70;;;13.90;80.40;;;;;;5096734;28;20197;-66
2023/05/19 01:25:42;;;;;;;0.83;0.67;;;13.90;80.40;;;;;;5102726;28;20207;-67
2023/05/19 01:28:36;;;;;;;0.70;0.70;;;14.00;80.60;;;;;;5091807;28;20202;-66
2023/05/19 01:31:10;;;;;;;0.60;0.60;;;14.00;80.60;;;;;;5105020;28;20570;-65
2023/05/19 01:33:41;;;;;;;1.07;0.57;;;14.10;80.60;;;;;;5097036;28;20203;-66
2023/05/19 01:36:09;;;;;;;0.67;0.67;;;14.10;80.60;;;;;;5090629;28;20232;-66
2023/05/19 01:38:38;;;;;;;0.70;0.70;;;14.00;80.40;;;;;;5095908;28;20264;-66
2023/05/19 01:41:06;;;;;;;0.90;0.80;;;14.00;80.50;;;;;;5092245;28;20612;-66
2023/05/19 01:43:35;;;;;;;2.80;0.90;;;14.00;80.70;;;;;;5094819;28;20698;-66
2023/05/19 01:46:03;;;;;;;0.70;0.70;;;14.00;80.60;;;;;;5103265;28;20319;-66
2023/05/19 01:48:32;;;;;;;0.87;0.80;;;14.00;80.80;;;;;;5105040;28;20203;-65
2023/05/19 01:51:02;;;;;;;1.03;0.70;;;14.00;80.90;;;;;;5106512;28;20211;-67
2023/05/19 01:53:30;;;;;;;0.60;0.60;;;14.00;81.00;;;;;;5106108;28;20221;-66
2023/05/19 01:55:58;;;;;;;0.70;0.60;;;14.00;81.20;;;;;;5107755;28;20205;-67
2023/05/19 01:58:37;;;;;;;0.93;0.83;;;14.00;81.80;;;;;;5102847;28;20223;-66
2023/05/19 02:01:15;;;;;;;0.80;0.80;;;14.00;81.30;;;;;;5109462;28;20199;-67
2023/05/19 02:03:56;;;;;;;0.77;0.70;;;13.90;81.30;;;;;;5109566;28;20207;-66
2023/05/19 02:06:36;;;;;;;0.50;0.50;;;13.90;81.40;;;;;;5104881;28;20256;-66
2023/05/19 02:09:08;;;;;;;1.47;0.73;;;13.90;81.50;;;;;;5101362;28;20233;-67
2023/05/19 02:11:37;;;;;;;0.60;0.60;;;13.90;81.50;;;;;;5103369;28;20651;-66
2023/05/19 02:14:15;;;;;;;0.70;0.70;;;13.90;81.60;;;;;;5102679;28;20597;-67
2023/05/19 02:16:45;;;;;;;0.60;0.60;;;13.90;81.70;;;;;;5099641;28;20207;-66
2023/05/19 02:19:22;;;;;;;0.60;0.60;;;13.90;81.80;;;;;;5102858;28;20221;-66
2023/05/19 02:21:49;;;;;;;1.70;0.77;;;13.90;81.90;;;;;;5106178;28;20209;-67
2023/05/19 02:24:16;;;;;;;0.70;0.70;;;13.90;82.20;;;;;;5113257;28;20205;-66
2023/05/19 02:26:44;;;;;;;2.00;0.60;;;13.90;82.00;;;;;;5105037;28;20196;-66
2023/05/19 02:29:11;;;;;;;0.97;0.60;;;13.90;82.10;;;;;;5104284;28;20201;-66
2023/05/19 02:31:38;;;;;;;1.07;0.60;;;13.90;82.10;;;;;;5109343;28;20201;-67
2023/05/19 02:34:07;;;;;;;0.70;0.53;;;13.90;82.10;;;;;;5110402;28;20207;-67
2023/05/19 02:36:36;;;;;;;0.60;0.60;;;13.90;82.20;;;;;;5110652;28;20719;-67
2023/05/19 02:39:03;;;;;;;0.93;0.93;;;13.90;82.40;;;;;;5125881;28;20242;-67
2023/05/19 02:41:31;;;;;;;1.13;0.80;;;13.90;82.50;;;;;;5107394;28;20206;-67
2023/05/19 02:43:58;;;;;;;0.60;0.60;;;13.90;82.70;;;;;;5107548;28;20236;-67
2023/05/19 02:46:26;;;;;;;0.57;0.57;;;14.80;83.70;;;;;;5109262;28;20206;-67
2023/05/19 02:48:53;;;;;;;1.03;0.70;;;13.90;82.70;;;;;;5112203;28;20186;-67
2023/05/19 02:51:20;;;;;;;0.63;0.60;;;13.80;82.80;;;;;;5113954;28;20206;-67
2023/05/19 02:53:50;;;;;;;0.77;0.60;;;13.90;82.90;;;;;;5112941;28;20370;-67
2023/05/19 02:56:17;;;;;;;0.90;0.63;;;13.90;82.90;;;;;;5113652;28;20226;-66
2023/05/19 02:58:44;;;;;;;0.70;0.70;;;13.80;82.90;;;;;;5118544;27;20749;-67
2023/05/19 03:01:11;;;;;;;0.70;0.70;;;13.80;83.10;;;;;;5111352;28;20627;-67
2023/05/19 03:03:39;;;;;;;0.73;0.73;;;13.80;83.70;;;;;;5110013;28;20202;-67
2023/05/19 03:06:07;;;;;;;0.73;0.73;;;13.80;83.40;;;;;;5111463;28;20203;-67
2023/05/19 03:08:34;;;;;;;0.60;0.60;;;13.80;83.30;;;;;;5108586;28;20233;-66
2023/05/19 03:11:03;;;;;;;1.40;0.80;;;13.80;83.30;;;;;;5109275;28;20214;-67
2023/05/19 03:13:35;;;;;;;2.20;0.90;;;13.80;83.40;;;;;;5097981;28;20627;-66
2023/05/19 03:16:03;;;;;;;0.60;0.60;;;13.80;83.40;;;;;;5108960;28;20284;-67
2023/05/19 03:18:30;;;;;;;0.57;0.57;;;13.80;83.60;;;;;;5109936;28;20547;-66
2023/05/19 03:20:57;;;;;;;0.93;0.60;;;13.80;83.70;;;;;;5112921;27;20210;-66
2023/05/19 03:23:25;;;;;;;1.20;0.60;;;13.80;83.70;;;;;;5113739;28;20200;-65
2023/05/19 03:25:54;;;;;;;0.50;0.50;;;13.80;83.70;;;;;;5111717;28;20205;-65
2023/05/19 03:28:23;;;;;;;0.77;0.50;;;13.90;83.80;;;;;;5112445;28;20266;-66
2023/05/19 03:30:50;;;;;;;0.70;0.70;;;13.90;83.90;;;;;;5110988;27;20202;-66
2023/05/19 03:33:20;;;;;;;1.07;0.57;;;13.90;83.90;;;;;;5109402;28;20233;-66
2023/05/19 03:35:47;;;;;;;0.67;0.63;;;13.90;83.90;;;;;;5103479;28;20210;-66
2023/05/19 03:38:15;;;;;;;0.50;0.50;;;13.90;84.00;;;;;;5109147;28;20206;-66
2023/05/19 03:40:49;;;;;;;0.73;0.67;;;13.90;84.20;;;;;;5114788;27;20304;-66
2023/05/19 03:43:16;;;;;;;0.80;0.77;;;13.90;84.30;;;;;;5106109;28;20209;-65
2023/05/19 03:45:53;;;;;;;0.70;0.70;;;13.90;84.40;;;;;;5109322;28;20213;-66
2023/05/19 03:48:43;;;;;;;0.80;0.80;;;13.80;84.40;;;;;;5106750;28;20250;-66
2023/05/19 03:51:33;;;;;;;0.60;0.60;;;13.80;84.60;;;;;;5092785;28;20214;-65
2023/05/19 03:54:16;;;;;;;0.70;0.67;;;13.90;84.80;;;;;;5111912;28;20203;-66
2023/05/19 03:56:43;;;;;;;0.80;0.80;;;13.90;84.80;;;;;;5098422;28;20253;-66
2023/05/19 03:59:11;;;;;;;0.80;0.80;;;13.90;84.80;;;;;;5106889;28;20330;-66
2023/05/19 04:01:40;;;;;;;0.90;0.90;;;13.90;84.90;;;;;;5111800;28;20876;-66
2023/05/19 04:04:07;;;;;;;1.00;0.90;;;13.90;84.90;;;;;;5103134;28;20207;-66
2023/05/19 04:06:35;;;;;;;1.10;1.00;;;13.90;85.00;;;;;;5105698;28;20674;-66
2023/05/19 04:09:03;;;;;;;0.80;0.80;;;13.90;85.00;;;;;;5099194;28;20254;-66
2023/05/19 04:11:31;;;;;;;0.70;0.70;;;14.00;85.10;;;;;;5110388;28;20211;-66
2023/05/19 04:13:58;;;;;;;0.77;0.77;;;14.00;85.00;;;;;;5101448;28;20268;-66
2023/05/19 04:16:25;;;;;;;1.07;0.90;;;14.00;85.00;;;;;;5107410;27;20199;-66
2023/05/19 04:18:53;;;;;;;0.80;0.80;;;14.00;85.10;;;;;;5098823;28;20198;-66
2023/05/19 04:21:21;;;;;;;0.80;0.80;;;14.00;85.20;;;;;;5105346;28;20202;-66
2023/05/19 04:23:48;;;;;;;0.60;0.60;;;14.00;85.20;;;;;;5110998;28;20251;-66
2023/05/19 04:26:16;;;;;;;0.90;0.90;;;14.00;85.30;;;;;;5111973;28;20633;-66
2023/05/19 04:28:44;;;;;;;2.37;0.70;;;13.90;85.30;;;;;;5110791;28;20233;-65
2023/05/19 04:31:12;;;;;;;0.93;0.70;;;14.10;85.50;;;;;;5105845;27;20209;-66
2023/05/19 04:33:41;;;;;;;0.73;0.70;;;14.10;85.60;;;;;;5104711;28;20199;-65
2023/05/19 04:36:10;;;;;;;1.40;0.90;;;14.10;85.70;;;;;;5097793;28;20702;-66
2023/05/19 04:38:40;;;;;;;4.17;0.90;;;14.10;85.90;;;;;;5113455;27;20208;-65
2023/05/19 04:41:09;;;;;;;1.63;1.10;;;14.20;86.10;;;;;;5104013;28;20219;-66
2023/05/19 04:43:40;;;;;;;0.80;0.70;;;14.20;86.30;;;;;;5100711;28;20206;-65
2023/05/19 04:46:11;;;;;;;0.73;0.73;;;14.20;86.40;;;;;;5099181;28;20204;-66
2023/05/19 04:48:39;;;;;;;0.67;0.67;;;14.30;86.60;;;;;;5109849;28;20248;-66
2023/05/19 04:51:07;;;;;;;1.00;0.63;;;14.30;86.70;;;;;;5109821;28;20210;-67
2023/05/19 04:53:35;;;;;;;1.07;0.60;;;14.30;86.90;;;;;;5095893;28;20211;-66
2023/05/19 04:56:03;;;;;;;1.70;0.57;;;14.30;87.50;;;;;;5102052;28;20200;-66
2023/05/19 04:58:32;;;;;;;0.60;0.60;;;14.30;87.30;;;;;;5101029;28;20474;-66
2023/05/19 05:00:59;;;;;;;1.80;0.80;;;14.30;87.40;;;;;;5111744;28;20627;-66
2023/05/19 05:03:27;;;;;;;0.80;0.80;;;14.30;87.80;;;;;;5110066;28;20238;-66
2023/05/19 05:05:55;;;;;;;0.60;0.60;;;14.30;87.80;;;;;;5110317;28;20652;-66
2023/05/19 05:08:23;;;;;;;0.70;0.70;;;14.40;88.00;;;;;;5110413;28;20230;-66
2023/05/19 05:10:53;;;;;;;0.77;0.63;;;14.30;88.10;;;;;;5109806;28;20203;-66
2023/05/19 05:13:22;;;;;;;2.93;0.70;;;14.30;88.20;;;;;;5109371;27;20203;-66
2023/05/19 05:15:50;;;;;;;2.37;0.80;;;14.40;89.20;;;;;;5110399;28;20204;-66
2023/05/19 05:18:19;;;;;;;1.30;0.63;;;14.40;88.60;;;;;;5099464;28;20215;-66
2023/05/19 05:20:47;;;;;;;0.87;0.67;;;14.40;88.80;;;;;;5088177;28;20220;-66
2023/05/19 05:23:16;;;;;;;1.23;0.60;;;14.40;88.90;;;;;;5099909;28;20678;-66
2023/05/19 05:25:47;;;;;;;0.70;0.70;;;14.40;89.20;;;;;;5099187;28;20294;-66
2023/05/19 05:28:18;;;;;;;0.70;0.70;;;14.50;89.20;;;;;;5094596;28;20539;-65
2023/05/19 05:30:47;;;;;;;1.13;0.90;;;14.50;89.30;;;;;;5099198;28;20203;-66
2023/05/19 05:33:16;;;;;;;0.60;0.60;;;14.30;89.20;;;;;;5107931;28;20276;-66
2023/05/19 05:35:43;;;;;;;0.60;0.60;;;14.50;89.40;;;;;;5102535;28;20235;-66
2023/05/19 05:38:12;;;;;;;2.83;0.80;;;14.60;89.60;;;;;;5100954;28;20256;-66
2023/05/19 05:40:41;;;;;;;2.37;0.97;;;14.50;89.70;;;;;;5103742;28;20275;-66
2023/05/19 05:43:09;;;;;;;0.80;0.80;;;14.60;90.00;;;;;;5107709;28;20199;-65
2023/05/19 05:45:43;;;;;;;1.40;0.70;;;14.60;90.00;;;;;;5101167;28;20714;-66
2023/05/19 05:48:11;;;;;;;0.80;0.77;;;14.60;90.00;;;;;;5102482;28;20191;-66
2023/05/19 05:50:39;;;;;;;1.53;0.90;;;14.60;90.10;;;;;;5095484;28;20564;-66
2023/05/19 05:53:09;;;;;;;1.53;0.90;;;14.70;90.20;;;;;;5098213;28;20565;-66
2023/05/19 05:55:40;;;;;;;0.93;0.90;;;14.70;90.20;;;;;;5104318;28;20207;-65
2023/05/19 05:58:09;;;;;;;1.83;0.80;;;14.70;90.20;;;;;;5104718;28;20654;-66
2023/05/19 06:00:37;;;;;;;1.60;0.97;;;14.80;90.30;;;;;;5100270;28;20219;-66
2023/05/19 06:03:06;;;;;;;0.60;0.60;;;14.80;90.30;;;;;;5105940;28;20738;-65
2023/05/19 06:05:33;;;;;;;2.70;0.60;;;14.70;90.30;;;;;;5104894;28;20202;-65
2023/05/19 06:08:00;;;;;;;1.07;0.87;;;14.80;90.40;;;;;;5104953;28;20203;-67
2023/05/19 06:10:28;;;;;;;1.93;0.70;;;14.80;90.40;;;;;;5106062;28;20184;-65
2023/05/19 06:12:56;;;;;;;1.70;1.00;;;14.80;90.50;;;;;;5102334;28;20211;-65
2023/05/19 06:15:24;;;;;;;2.77;1.00;;;14.90;90.70;;;;;;5103438;28;20209;-65
2023/05/19 06:18:12;;;;;;;0.50;0.50;;;14.90;90.80;;;;;;5098726;28;20206;-65
2023/05/19 06:20:40;;;;;;;5.60;0.97;;;15.00;90.90;;;;;;5097865;28;20723;-65
2023/05/19 06:23:08;;;;;;;3.23;0.70;;;15.00;91.20;;;;;;5105066;28;20580;-66
2023/05/19 06:25:36;;;;;;;4.33;0.70;;;15.00;91.10;;;;;;5107115;28;20223;-65
2023/05/19 06:28:03;;;;;;;5.90;1.07;;;15.00;91.10;;;;;;5102819;28;20285;-65
2023/05/19 06:30:30;;;;;;;2.77;1.10;;;15.10;91.30;;;;;;5106125;28;20288;-66
2023/05/19 06:33:17;;;;;;;0.60;0.60;;;15.10;91.30;;;;;;5106782;27;20738;-65
2023/05/19 06:35:44;;;;;;;1.17;0.60;;;15.10;91.20;;;;;;5101428;28;20197;-65
2023/05/19 06:38:12;;;;;;;0.77;0.50;;;15.10;91.10;;;;;;5102814;28;20874;-65
2023/05/19 06:40:40;;;;;;;0.63;0.63;;;15.10;91.10;;;;;;5103737;27;20268;-66
2023/05/19 06:43:07;;;;;;;2.27;0.80;;;15.20;91.20;;;;;;5107546;27;20223;-66
2023/05/19 06:45:53;;;;;;;2.30;0.97;;;15.20;91.20;;;;;;5103508;28;20196;-66
2023/05/19 06:48:23;;;;;;;0.70;0.70;;;15.20;91.30;;;;;;5109143;28;20694;-66
2023/05/19 06:50:50;;;;;;;2.40;0.70;;;15.30;91.30;;;;;;5110112;28;20199;-66
2023/05/19 06:53:20;;;;;;;0.70;0.70;;;15.30;91.30;;;;;;5119645;27;20200;-66
2023/05/19 06:55:49;;;;;;;3.03;0.53;;;15.30;91.20;;;;;;5102254;28;20591;-66
2023/05/19 06:58:18;;;;;;;0.60;0.60;;;15.40;91.20;;;;;;5105806;28;20279;-66
2023/05/19 07:00:45;;;;;;;1.00;0.60;;;15.40;91.30;;;;;;5107833;28;20307;-66
2023/05/19 07:03:16;;;;;;;0.50;0.50;;;15.40;91.30;;;;;;5107460;28;20226;-66
2023/05/19 07:05:44;;;;;;;0.40;0.40;;;15.50;91.40;;;;;;5101616;28;20208;-66
2023/05/19 07:08:12;;;;;;;0.83;0.40;;;15.50;91.20;;;;;;5102352;28;20252;-66
2023/05/19 07:10:39;;;;;;;0.50;0.50;;;15.60;91.20;;;;;;5104610;28;20267;-66
2023/05/19 07:13:11;;;;;;;0.60;0.60;;;15.60;91.20;;;;;;5109597;27;20315;-66
2023/05/19 07:15:38;;;;;;;0.50;0.50;;;15.70;91.20;;;;;;5106567;28;20188;-66
2023/05/19 07:18:06;;;;;;;0.67;0.50;;;15.70;91.10;;;;;;5097766;28;20204;-66
2023/05/19 07:20:33;;;;;;;0.60;0.60;;;15.80;91.10;;;;;;5109286;28;20227;-66
2023/05/19 07:23:02;;;;;;;0.80;0.80;;;15.80;91.10;;;;;;5106396;28;20199;-66
2023/05/19 07:25:29;;;;;;;1.07;0.60;;;15.90;91.00;;;;;;5097627;28;20233;-65
2023/05/19 07:27:57;;;;;;;1.63;0.60;;;15.90;90.90;;;;;;5104072;28;20218;-66
2023/05/19 07:30:24;;;;;;;1.70;0.60;;;15.90;90.90;;;;;;5108764;28;20275;-66
2023/05/19 07:32:51;;;;;;;0.40;0.40;;;16.00;90.90;;;;;;5109993;28;20195;-66
2023/05/19 07:35:18;;;;;;;0.80;0.50;;;16.00;90.80;;;;;;5106053;28;20208;-66
2023/05/19 07:37:45;;;;;;;0.40;0.40;;;16.10;90.80;;;;;;5110013;28;20192;-66
2023/05/19 07:40:14;;;;;;;0.50;0.50;;;16.10;90.70;;;;;;5101855;28;20226;-66
2023/05/19 07:42:41;;;;;;;2.20;0.63;;;16.20;90.70;;;;;;5110046;28;20273;-65
2023/05/19 07:45:09;;;;;;;0.77;0.60;;;16.10;90.60;;;;;;5108210;27;20278;-66
2023/05/19 07:47:36;;;;;;;1.00;0.57;;;16.20;90.60;;;;;;5108727;28;20672;-66
2023/05/19 07:50:04;;;;;;;0.60;0.60;;;16.20;90.60;;;;;;5103592;28;20210;-67
2023/05/19 07:52:31;;;;;;;1.47;0.80;;;16.20;90.60;;;;;;5108925;28;20686;-66
2023/05/19 07:54:59;;;;;;;0.93;0.60;;;16.20;90.60;;;;;;5106691;28;20188;-67
2023/05/19 07:57:27;;;;;;;0.60;0.60;;;16.20;90.50;;;;;;5107409;28;20194;-66
2023/05/19 07:59:55;;;;;;;0.77;0.50;;;16.20;90.50;;;;;;5095962;28;20193;-66
2023/05/19 08:02:22;;;;;;;0.90;0.53;;;16.30;90.50;;;;;;5107251;27;20208;-66
2023/05/19 08:04:49;;;;;;;0.50;0.50;;;16.30;90.50;;;;;;5104312;27;20572;-66
2023/05/19 08:07:16;;;;;;;0.70;0.50;;;16.30;90.50;;;;;;5108063;28;20199;-66
2023/05/19 08:09:43;;;;;;;2.57;0.70;;;16.30;90.50;;;;;;5109361;28;20765;-66
2023/05/19 08:12:11;;;;;;;0.47;0.47;;;16.30;90.50;;;;;;5107144;28;20762;-66
2023/05/19 08:14:39;;;;;;;1.93;0.60;;;16.30;90.50;;;;;;5110194;28;20311;-66
2023/05/19 08:17:06;;;;;;;0.60;0.60;;;16.20;90.40;;;;;;5103157;28;20206;-66
2023/05/19 08:19:33;;;;;;;4.17;0.80;;;16.20;90.50;;;;;;5108486;28;20207;-66
2023/05/19 08:22:01;;;;;;;1.23;0.93;;;16.30;90.40;;;;;;5101029;28;20303;-66
2023/05/19 08:24:29;;;;;;;0.60;0.60;;;16.30;90.30;;;;;;5108557;28;20228;-66
2023/05/19 08:26:56;;;;;;;1.13;0.80;;;16.20;90.30;;;;;;5106019;28;20207;-66
2023/05/19 08:29:23;;;;;;;2.10;0.77;;;16.20;90.20;;;;;;5108336;28;20192;-66
2023/05/19 08:31:52;;;;;;;4.60;0.60;;;16.20;90.20;;;;;;5103224;28;20199;-65
2023/05/19 08:34:19;;;;;;;0.73;0.67;;;16.20;90.10;;;;;;5109788;28;20242;-65
2023/05/19 08:36:46;;;;;;;1.00;0.80;;;16.20;90.10;;;;;;5105058;28;20659;-65
2023/05/19 08:39:15;;;;;;;0.93;0.50;;;16.20;90.10;;;;;;5102151;28;20203;-65
2023/05/19 08:41:42;;;;;;;1.83;0.60;;;16.30;90.40;;;;;;5102649;28;20231;-65
2023/05/19 08:44:09;;;;;;;0.50;0.50;;;16.20;90.00;;;;;;5096576;28;20257;-64
2023/05/19 08:46:36;;;;;;;0.47;0.47;;;16.20;90.00;;;;;;5109090;28;20210;-65
2023/05/19 08:49:12;;;;;;;4.13;0.70;;;16.30;90.10;;;;;;5098244;28;20208;-65
2023/05/19 08:51:48;;;;;;;0.67;0.60;;;16.30;90.00;;;;;;5106275;28;20675;-66
2023/05/19 08:54:16;;;;;;;3.80;0.90;;;16.30;90.00;;;;;;5100388;28;20296;-67
2023/05/19 08:56:45;;;;;;;1.03;0.83;;;16.30;90.00;;;;;;5106966;27;20203;-67
2023/05/19 08:59:13;;;;;;;1.37;0.83;;;16.30;90.10;;;;;;5103998;28;20200;-67
2023/05/19 09:01:44;;;;;;;5.50;0.90;;;16.30;90.00;;;;;;5104085;27;20676;-66
2023/05/19 09:04:13;;;;;;;1.03;0.70;;;16.20;89.80;;;;;;5109103;28;20198;-66
2023/05/19 09:06:41;;;;;;;12.10;1.13;;;16.30;89.80;;;;;;5113246;27;20275;-67
2023/05/19 09:09:09;;;;;;;0.93;0.60;;;16.30;89.70;;;;;;5103105;28;20264;-67
2023/05/19 09:11:37;;;;;;;1.87;0.90;;;16.20;89.50;;;;;;5103465;28;20486;-67
2023/05/19 09:14:04;;;;;;;2.77;0.70;;;16.30;89.50;;;;;;5100826;28;20779;-67
2023/05/19 09:16:32;;;;;;;1.57;0.90;;;16.30;89.50;;;;;;5102714;28;20200;-66
2023/05/19 09:19:00;;;;;;;6.17;1.20;;;16.40;89.60;;;;;;5095936;28;20216;-67
2023/05/19 09:21:30;;;;;;;2.90;1.10;;;16.40;89.40;;;;;;5096480;28;20316;-66
2023/05/19 09:23:58;;;;;;;2.47;1.33;;;16.40;89.10;;;;;;5105087;28;20188;-66
2023/05/19 09:26:36;;;;;;;4.13;1.50;;;16.40;88.70;;;;;;5091102;28;20218;-65
2023/05/19 09:29:10;;;;;;;2.47;1.20;;;16.40;88.50;;;;;;5102246;28;20243;-66
2023/05/19 09:31:37;;;;;;;0.70;0.70;;;16.30;88.50;;;;;;5108369;28;20408;-66
2023/05/19 09:34:04;;;;;;;1.63;1.10;;;16.30;88.40;;;;;;5105257;28;20204;-66
2023/05/19 09:36:33;;;;;;;1.60;1.00;;;16.30;88.30;;;;;;5105935;28;20221;-67
2023/05/19 09:39:00;;;;;;;2.07;1.10;;;16.30;88.50;;;;;;5108644;28;20199;-66
2023/05/19 09:41:27;;;;;;;1.03;0.90;;;16.30;88.50;;;;;;5105900;28;20219;-67
2023/05/19 09:43:55;;;;;;;2.00;0.70;;;16.30;88.50;;;;;;5103531;28;20410;-67
2023/05/19 09:46:27;;;;;;;2.13;1.13;;;16.30;88.50;;;;;;5107436;28;20303;-65
2023/05/19 09:48:57;;;;;;;2.47;1.10;;;16.20;88.30;;;;;;5104348;28;20237;-66
2023/05/19 09:51:25;;;;;;;1.40;0.70;;;16.30;88.20;;;;;;5103460;28;20195;-66
2023/05/19 09:53:54;;;;;;;3.63;1.30;;;16.30;88.00;;;;;;5104205;28;20570;-65
2023/05/19 09:56:22;;;;;;;1.60;0.80;;;16.30;87.80;;;;;;5105229;28;20550;-65
2023/05/19 09:58:49;;;;;;;1.03;0.73;;;16.30;87.60;;;;;;5107751;28;20188;-67
2023/05/19 10:01:17;;;;;;;1.53;1.00;;;16.30;87.60;;;;;;5107129;28;20235;-65
2023/05/19 10:03:45;;;;;;;1.97;0.87;;;16.30;87.50;;;;;;5106617;27;20199;-66
2023/05/19 10:06:14;;;;;;;2.30;0.77;;;16.30;87.60;;;;;;5108860;28;20578;-66
2023/05/19 10:08:42;;;;;;;2.00;1.00;;;16.30;87.50;;;;;;5105723;28;20710;-66
2023/05/19 10:11:11;;;;;;;3.27;1.10;;;16.30;87.50;;;;;;5099760;27;20192;-66
2023/05/19 10:13:39;;;;;;;0.90;0.90;;;16.30;87.30;;;;;;5099561;28;20195;-67
2023/05/19 10:16:08;;;;;;;2.00;1.00;;;16.30;87.20;;;;;;5106987;28;20200;-66
2023/05/19 10:18:36;;;;;;;1.20;0.93;;;16.30;86.80;;;;;;5106307;28;20529;-65
2023/05/19 10:21:03;;;;;;;2.67;0.90;;;16.20;86.70;;;;;;5107012;28;20239;-66
2023/05/19 10:23:30;;;;;;;1.17;0.87;;;16.20;86.60;;;;;;5105257;27;20678;-66
2023/05/19 10:25:59;;;;;;;3.63;1.03;;;16.20;86.70;;;;;;5102886;27;20599;-66
2023/05/19 10:28:36;;;;;;;0.70;0.70;;;16.10;86.50;;;;;;5109477;28;20587;-65
2023/05/19 10:31:08;;;;;;;3.80;1.50;;;16.10;86.50;;;;;;5108880;27;20183;-66
2023/05/19 10:33:47;;;;;;;4.97;0.97;;;16.10;86.30;;;;;;5107811;28;20210;-66
2023/05/19 10:36:34;;;;;;;2.70;0.77;;;16.10;86.20;;;;;;5107359;27;20187;-66
2023/05/19 10:39:06;;;;;;;1.47;1.00;;;16.00;86.00;;;;;;5105667;28;20199;-66
2023/05/19 10:41:41;;;;;;;3.53;0.93;;;16.10;85.80;;;;;;5109645;27;20253;-65
2023/05/19 10:44:28;;;;;;;1.87;1.30;;;16.00;85.40;;;;;;5109167;28;20191;-65
2023/05/19 10:46:55;;;;;;;2.00;1.10;;;16.00;85.20;;;;;;5104918;27;20192;-66
2023/05/19 10:49:22;;;;;;;2.03;1.10;;;15.90;85.10;;;;;;5108487;27;20203;-66
2023/05/19 10:51:49;;;;;;;2.00;0.90;;;15.90;85.00;;;;;;5108017;27;20192;-67
2023/05/19 10:54:19;;;;;;;3.00;0.80;;;15.90;84.80;;;;;;5110455;28;20624;-66
2023/05/19 10:56:47;;;;;;;0.80;0.63;;;15.90;84.60;;;;;;5102121;28;20287;-67
2023/05/19 10:59:36;;;;;;;1.50;0.73;;;15.80;84.40;;;;;;5109150;27;20544;-66
2023/05/19 11:02:04;;;;;;;1.63;0.70;;;15.90;84.40;;;;;;5098503;27;20227;-66
2023/05/19 11:04:47;;;;;;;1.47;0.80;;;15.80;84.20;;;;;;5110269;28;20766;-66
2023/05/19 11:07:18;;;;;;;0.90;0.90;;;15.90;84.20;;;;;;5096457;27;20589;-66
2023/05/19 11:09:51;;;;;;;2.50;1.10;;;15.90;84.10;;;;;;5102648;28;20656;-67
2023/05/19 11:12:21;;;;;;;3.03;1.10;;;15.90;84.00;;;;;;5106057;27;20245;-66
2023/05/19 11:14:52;;;;;;;1.17;0.90;;;15.90;83.90;;;;;;5097080;28;20623;-66
2023/05/19 11:17:22;;;;;;;0.93;0.80;;;15.90;83.70;;;;;;5107481;27;20195;-66
2023/05/19 11:19:54;;;;;;;1.03;1.03;;;15.90;83.70;;;;;;5106852;28;20196;-67
2023/05/19 11:22:24;;;;;;;1.17;0.90;;;16.00;83.70;;;;;;5122033;27;20204;-66
2023/05/19 11:24:53;;;;;;;1.93;1.17;;;16.00;83.60;;;;;;5104960;28;20191;-66
2023/05/19 11:27:22;;;;;;;2.77;0.97;;;16.00;83.40;;;;;;5110950;27;20249;-66
2023/05/19 11:29:51;;;;;;;2.57;1.03;;;16.00;83.50;;;;;;5106874;28;20202;-66
2023/05/19 11:32:20;;;;;;;2.13;1.20;;;16.00;83.40;;;;;;5110360;28;20180;-66
2023/05/19 11:34:49;;;;;;;1.40;0.80;;;16.10;83.50;;;;;;5110070;28;20242;-67
2023/05/19 11:37:16;;;;;;;3.27;0.80;;;16.10;83.40;;;;;;5103110;28;20188;-66
2023/05/19 11:39:45;;;;;;;1.60;1.00;;;16.10;83.30;;;;;;5109152;28;20556;-67
2023/05/19 11:42:12;;;;;;;0.80;0.80;;;16.00;83.30;;;;;;5108784;28;20211;-66
2023/05/19 11:44:40;;;;;;;0.60;0.60;;;16.00;83.20;;;;;;5110167;27;20272;-67
2023/05/19 11:47:09;;;;;;;0.60;0.60;;;16.00;83.00;;;;;;5107441;28;20200;-67
2023/05/19 11:49:36;;;;;;;1.17;0.50;;;16.10;83.10;;;;;;5111147;28;20204;-67
2023/05/19 11:52:04;;;;;;;0.97;0.60;;;16.10;83.00;;;;;;5108555;28;20200;-66
2023/05/19 11:54:33;;;;;;;0.50;0.50;;;16.10;83.00;;;;;;5109854;28;20580;-66
2023/05/19 11:57:01;;;;;;;0.50;0.50;;;16.10;83.10;;;;;;5109086;28;20218;-67
2023/05/19 11:59:33;;;;;;;0.70;0.70;;;16.20;83.20;;;;;;5109591;28;20203;-67
2023/05/19 12:02:14;;;;;;;0.50;0.50;;;16.10;83.30;;;;;;5099443;28;20223;-67
2023/05/19 12:04:43;;;;;;;0.60;0.60;;;16.20;83.40;;;;;;5106750;28;20294;-66
2023/05/19 12:07:12;;;;;;;0.70;0.60;;;16.20;83.50;;;;;;5099402;28;20310;-67
2023/05/19 12:09:39;;;;;;;0.80;0.50;;;16.60;84.00;;;;;;5107954;27;20262;-67
2023/05/19 12:12:07;;;;;;;1.03;0.60;;;16.30;83.80;;;;;;5093820;28;20199;-66
2023/05/19 12:14:35;;;;;;;1.10;0.60;;;16.30;83.80;;;;;;5095600;28;20193;-66
2023/05/19 12:17:11;;;;;;;0.60;0.50;;;16.30;83.80;;;;;;5107365;28;20200;-66
2023/05/19 12:19:38;;;;;;;1.33;0.60;;;16.30;83.60;;;;;;5096743;28;20732;-67
2023/05/19 12:22:08;;;;;;;0.53;0.53;;;16.30;83.60;;;;;;5102309;28;20214;-65
2023/05/19 12:24:37;;;;;;;0.83;0.40;;;16.30;83.70;;;;;;5107290;28;20257;-66
2023/05/19 12:27:11;;;;;;;1.13;0.40;;;16.40;83.80;;;;;;5103504;28;20188;-66
2023/05/19 12:29:39;;;;;;;0.57;0.57;;;16.40;83.70;;;;;;5108409;28;20186;-66
2023/05/19 12:32:07;;;;;;;0.87;0.60;;;16.40;83.80;;;;;;5110166;28;20275;-65
2023/05/19 12:34:37;;;;;;;0.40;0.40;;;16.40;84.60;;;;;;5108948;28;20214;-66
2023/05/19 12:37:04;;;;;;;0.50;0.50;;;16.40;83.90;;;;;;5108444;28;20231;-66
2023/05/19 12:39:33;;;;;;;0.50;0.40;;;16.40;84.00;;;;;;5103667;28;20650;-66
2023/05/19 12:42:07;;;;;;;2.10;0.77;;;16.50;84.20;;;;;;5098151;28;20219;-66
2023/05/19 12:44:37;;;;;;;0.77;0.60;;;16.50;84.30;;;;;;5102925;28;20200;-66
2023/05/19 12:47:06;;;;;;;1.43;0.70;;;16.50;84.60;;;;;;5098193;28;20199;-66
2023/05/19 12:49:34;;;;;;;0.87;0.70;;;16.50;84.90;;;;;;5094675;28;20201;-67
2023/05/19 12:52:02;;;;;;;2.03;0.70;;;16.50;85.30;;;;;;5105596;28;20207;-67
2023/05/19 12:54:34;;;;;;;1.80;0.80;;;16.50;85.60;;;;;;5099487;28;20196;-66
2023/05/19 12:57:05;;;;;;;0.60;0.60;;;16.50;85.90;;;;;;5102417;28;20200;-67
2023/05/19 12:59:35;;;;;;;0.87;0.70;;;16.50;86.10;;;;;;5098562;28;20204;-66